sensor_id;sensor_type;location;lat;lon;timestamp;P1;durP1;ratioP1;P2;durP2;ratioP2
5054;SDS011;13829;48.990;8.346;2023-06-14T00:01:07;6.17;;;5.57;;
5054;SDS011;13829;48.990;8.346;2023-06-14T00:03:34;7.93;;;5.90;;
5054;SDS011;13829;48.990;8.346;2023-06-14T00:06:01;7.50;;;5.97;;
5054;SDS011;13829;48.990;8.346;2023-06-14T00:08:29;7.00;;;6.30;;
5054;SDS011;13829;48.990;8.346;2023-06-14T00:10:56;7.30;;;6.00;;
5054;SDS011;13829;48.990;8.346;2023-06-14T00:13:23;7.60;;;6.07;;
5054;SDS011;13829;48.990;8.346;2023-06-14T00:15:50;7.50;;;6.47;;
5054;SDS011;13829;48.990;8.346;2023-06-14T00:18:19;7.97;;;6.20;;
5054;SDS011;13829;48.990;8.346;2023-06-14T00:20:49;7.23;;;6.00;;
5054;SDS011;13829;48.990;8.346;2023-06-14T00:23:17;6.83;;;5.87;;
5054;SDS011;13829;48.990;8.346;2023-06-14T00:25:46;8.63;;;6.10;;
5054;SDS011;13829;48.990;8.346;2023-06-14T00:28:13;7.67;;;6.07;;
5054;SDS011;13829;48.990;8.346;2023-06-14T00:30:40;7.40;;;6.43;;
5054;SDS011;13829;48.990;8.346;2023-06-14T00:33:09;8.43;;;5.97;;
5054;SDS011;13829;48.990;8.346;2023-06-14T00:35:36;13.13;;;6.10;;
5054;SDS011;13829;48.990;8.346;2023-06-14T00:38:02;6.93;;;5.70;;
5054;SDS011;13829;48.990;8.346;2023-06-14T00:40:30;9.03;;;5.70;;
5054;SDS011;13829;48.990;8.346;2023-06-14T00:42:58;8.77;;;5.53;;
5054;SDS011;13829;48.990;8.346;2023-06-14T00:45:25;6.67;;;5.70;;
5054;SDS011;13829;48.990;8.346;2023-06-14T00:47:52;5.33;;;4.83;;
5054;SDS011;13829;48.990;8.346;2023-06-14T00:50:20;5.57;;;4.93;;
5054;SDS011;13829;48.990;8.346;2023-06-14T00:52:48;7.57;;;4.57;;
5054;SDS011;13829;48.990;8.346;2023-06-14T00:55:16;9.77;;;5.07;;
5054;SDS011;13829;48.990;8.346;2023-06-14T00:57:43;7.47;;;5.13;;
5054;SDS011;13829;48.990;8.346;2023-06-14T01:00:12;6.80;;;4.47;;
5054;SDS011;13829;48.990;8.346;2023-06-14T01:02:40;6.73;;;4.77;;
5054;SDS011;13829;48.990;8.346;2023-06-14T01:05:07;6.63;;;4.40;;
5054;SDS011;13829;48.990;8.346;2023-06-14T01:07:40;8.03;;;5.00;;
5054;SDS011;13829;48.990;8.346;2023-06-14T01:10:26;5.87;;;4.70;;
5054;SDS011;13829;48.990;8.346;2023-06-14T01:13:09;8.00;;;5.07;;
5054;SDS011;13829;48.990;8.346;2023-06-14T01:15:47;7.00;;;5.03;;
5054;SDS011;13829;48.990;8.346;2023-06-14T01:18:16;9.57;;;5.67;;
5054;SDS011;13829;48.990;8.346;2023-06-14T01:20:44;7.00;;;5.17;;
5054;SDS011;13829;48.990;8.346;2023-06-14T01:23:15;5.63;;;4.67;;
5054;SDS011;13829;48.990;8.346;2023-06-14T01:25:43;7.07;;;4.70;;
5054;SDS011;13829;48.990;8.346;2023-06-14T01:28:10;5.87;;;5.00;;
5054;SDS011;13829;48.990;8.346;2023-06-14T01:30:40;7.17;;;4.90;;
5054;SDS011;13829;48.990;8.346;2023-06-14T01:33:11;6.47;;;5.03;;
5054;SDS011;13829;48.990;8.346;2023-06-14T01:35:40;8.37;;;5.17;;
5054;SDS011;13829;48.990;8.346;2023-06-14T01:38:09;5.47;;;4.87;;
5054;SDS011;13829;48.990;8.346;2023-06-14T01:40:37;5.70;;;4.53;;
5054;SDS011;13829;48.990;8.346;2023-06-14T01:43:05;4.80;;;4.30;;
5054;SDS011;13829;48.990;8.346;2023-06-14T01:45:33;6.87;;;5.07;;
5054;SDS011;13829;48.990;8.346;2023-06-14T01:48:03;7.50;;;5.10;;
5054;SDS011;13829;48.990;8.346;2023-06-14T01:50:31;4.77;;;4.13;;
5054;SDS011;13829;48.990;8.346;2023-06-14T01:52:58;7.97;;;5.20;;
5054;SDS011;13829;48.990;8.346;2023-06-14T01:55:25;5.43;;;4.50;;
5054;SDS011;13829;48.990;8.346;2023-06-14T01:57:54;7.03;;;4.80;;
5054;SDS011;13829;48.990;8.346;2023-06-14T02:00:21;5.90;;;5.13;;
5054;SDS011;13829;48.990;8.346;2023-06-14T02:02:48;5.30;;;4.80;;
5054;SDS011;13829;48.990;8.346;2023-06-14T02:05:15;5.87;;;4.73;;
5054;SDS011;13829;48.990;8.346;2023-06-14T02:07:43;5.23;;;4.53;;
5054;SDS011;13829;48.990;8.346;2023-06-14T02:10:11;5.40;;;4.70;;
5054;SDS011;13829;48.990;8.346;2023-06-14T02:12:38;7.33;;;4.50;;
5054;SDS011;13829;48.990;8.346;2023-06-14T02:15:07;5.90;;;4.87;;
5054;SDS011;13829;48.990;8.346;2023-06-14T02:17:41;6.70;;;5.10;;
5054;SDS011;13829;48.990;8.346;2023-06-14T02:20:09;5.33;;;4.70;;
5054;SDS011;13829;48.990;8.346;2023-06-14T02:22:37;6.50;;;5.37;;
5054;SDS011;13829;48.990;8.346;2023-06-14T02:25:04;7.97;;;5.80;;
5054;SDS011;13829;48.990;8.346;2023-06-14T02:27:32;6.67;;;5.40;;
5054;SDS011;13829;48.990;8.346;2023-06-14T02:29:59;9.20;;;5.37;;
5054;SDS011;13829;48.990;8.346;2023-06-14T02:32:28;6.67;;;4.80;;
5054;SDS011;13829;48.990;8.346;2023-06-14T02:34:55;7.60;;;4.93;;
5054;SDS011;13829;48.990;8.346;2023-06-14T02:37:22;8.13;;;5.23;;
5054;SDS011;13829;48.990;8.346;2023-06-14T02:39:49;8.10;;;5.33;;
5054;SDS011;13829;48.990;8.346;2023-06-14T02:42:16;6.97;;;5.93;;
5054;SDS011;13829;48.990;8.346;2023-06-14T02:44:43;8.43;;;5.50;;
5054;SDS011;13829;48.990;8.346;2023-06-14T02:47:10;7.27;;;5.53;;
5054;SDS011;13829;48.990;8.346;2023-06-14T02:49:38;6.13;;;5.53;;
5054;SDS011;13829;48.990;8.346;2023-06-14T02:52:05;6.23;;;5.63;;
5054;SDS011;13829;48.990;8.346;2023-06-14T02:54:34;6.27;;;5.27;;
5054;SDS011;13829;48.990;8.346;2023-06-14T02:57:01;5.57;;;5.07;;
5054;SDS011;13829;48.990;8.346;2023-06-14T02:59:28;7.37;;;5.50;;
5054;SDS011;13829;48.990;8.346;2023-06-14T03:01:55;5.70;;;5.20;;
5054;SDS011;13829;48.990;8.346;2023-06-14T03:04:22;8.07;;;5.43;;
5054;SDS011;13829;48.990;8.346;2023-06-14T03:06:52;7.63;;;5.13;;
5054;SDS011;13829;48.990;8.346;2023-06-14T03:09:19;7.33;;;5.63;;
5054;SDS011;13829;48.990;8.346;2023-06-14T03:11:46;6.30;;;5.00;;
5054;SDS011;13829;48.990;8.346;2023-06-14T03:14:13;8.13;;;5.80;;
5054;SDS011;13829;48.990;8.346;2023-06-14T03:16:40;7.57;;;5.43;;
5054;SDS011;13829;48.990;8.346;2023-06-14T03:19:07;10.10;;;5.70;;
5054;SDS011;13829;48.990;8.346;2023-06-14T03:21:34;6.77;;;5.43;;
5054;SDS011;13829;48.990;8.346;2023-06-14T03:24:03;7.40;;;5.63;;
5054;SDS011;13829;48.990;8.346;2023-06-14T03:26:30;6.37;;;5.43;;
5054;SDS011;13829;48.990;8.346;2023-06-14T03:28:59;6.67;;;5.77;;
5054;SDS011;13829;48.990;8.346;2023-06-14T03:31:25;7.37;;;5.30;;
5054;SDS011;13829;48.990;8.346;2023-06-14T03:33:57;10.27;;;5.97;;
5054;SDS011;13829;48.990;8.346;2023-06-14T03:36:24;8.27;;;5.63;;
5054;SDS011;13829;48.990;8.346;2023-06-14T03:38:52;8.53;;;5.33;;
5054;SDS011;13829;48.990;8.346;2023-06-14T03:41:21;5.90;;;5.30;;
5054;SDS011;13829;48.990;8.346;2023-06-14T03:43:48;9.47;;;5.70;;
5054;SDS011;13829;48.990;8.346;2023-06-14T03:46:15;7.80;;;5.73;;
5054;SDS011;13829;48.990;8.346;2023-06-14T03:48:42;5.97;;;5.20;;
5054;SDS011;13829;48.990;8.346;2023-06-14T03:51:09;6.53;;;5.83;;
5054;SDS011;13829;48.990;8.346;2023-06-14T03:53:35;8.63;;;5.50;;
5054;SDS011;13829;48.990;8.346;2023-06-14T03:56:03;8.10;;;5.70;;
5054;SDS011;13829;48.990;8.346;2023-06-14T03:58:31;8.40;;;5.80;;
5054;SDS011;13829;48.990;8.346;2023-06-14T04:00:58;10.80;;;5.87;;
5054;SDS011;13829;48.990;8.346;2023-06-14T04:03:25;6.63;;;5.70;;
5054;SDS011;13829;48.990;8.346;2023-06-14T04:05:54;6.53;;;5.83;;
5054;SDS011;13829;48.990;8.346;2023-06-14T04:08:24;7.77;;;6.10;;
5054;SDS011;13829;48.990;8.346;2023-06-14T04:10:51;6.83;;;5.37;;
5054;SDS011;13829;48.990;8.346;2023-06-14T04:13:18;7.20;;;6.40;;
5054;SDS011;13829;48.990;8.346;2023-06-14T04:15:47;7.80;;;5.93;;
5054;SDS011;13829;48.990;8.346;2023-06-14T04:18:14;5.70;;;5.10;;
5054;SDS011;13829;48.990;8.346;2023-06-14T04:20:41;14.33;;;6.30;;
5054;SDS011;13829;48.990;8.346;2023-06-14T04:23:12;8.80;;;6.47;;
5054;SDS011;13829;48.990;8.346;2023-06-14T04:25:40;9.77;;;6.27;;
5054;SDS011;13829;48.990;8.346;2023-06-14T04:28:10;11.73;;;6.60;;
5054;SDS011;13829;48.990;8.346;2023-06-14T04:30:37;7.80;;;6.40;;
5054;SDS011;13829;48.990;8.346;2023-06-14T04:33:07;10.57;;;7.37;;
5054;SDS011;13829;48.990;8.346;2023-06-14T04:35:35;7.70;;;6.90;;
5054;SDS011;13829;48.990;8.346;2023-06-14T04:38:03;7.87;;;6.13;;
5054;SDS011;13829;48.990;8.346;2023-06-14T04:40:34;9.67;;;6.90;;
5054;SDS011;13829;48.990;8.346;2023-06-14T04:43:07;9.63;;;6.90;;
5054;SDS011;13829;48.990;8.346;2023-06-14T04:45:37;8.87;;;7.17;;
5054;SDS011;13829;48.990;8.346;2023-06-14T04:48:05;8.07;;;6.20;;
5054;SDS011;13829;48.990;8.346;2023-06-14T04:50:33;9.73;;;6.73;;
5054;SDS011;13829;48.990;8.346;2023-06-14T04:53:00;11.50;;;6.60;;
5054;SDS011;13829;48.990;8.346;2023-06-14T04:55:27;8.80;;;6.93;;
5054;SDS011;13829;48.990;8.346;2023-06-14T04:57:54;9.50;;;6.80;;
5054;SDS011;13829;48.990;8.346;2023-06-14T05:00:21;10.10;;;7.27;;
5054;SDS011;13829;48.990;8.346;2023-06-14T05:02:49;9.07;;;7.30;;
5054;SDS011;13829;48.990;8.346;2023-06-14T05:05:19;9.00;;;6.50;;
5054;SDS011;13829;48.990;8.346;2023-06-14T05:07:46;7.93;;;6.33;;
5054;SDS011;13829;48.990;8.346;2023-06-14T05:10:13;8.70;;;6.40;;
5054;SDS011;13829;48.990;8.346;2023-06-14T05:12:40;6.40;;;5.73;;
5054;SDS011;13829;48.990;8.346;2023-06-14T05:15:08;8.07;;;7.27;;
5054;SDS011;13829;48.990;8.346;2023-06-14T05:17:36;7.77;;;6.20;;
5054;SDS011;13829;48.990;8.346;2023-06-14T05:20:05;12.43;;;6.77;;
5054;SDS011;13829;48.990;8.346;2023-06-14T05:22:36;8.37;;;6.43;;
5054;SDS011;13829;48.990;8.346;2023-06-14T05:25:03;11.37;;;7.03;;
5054;SDS011;13829;48.990;8.346;2023-06-14T05:27:31;9.20;;;6.03;;
5054;SDS011;13829;48.990;8.346;2023-06-14T05:30:00;7.27;;;6.23;;
5054;SDS011;13829;48.990;8.346;2023-06-14T05:32:28;7.40;;;6.40;;
5054;SDS011;13829;48.990;8.346;2023-06-14T05:34:56;11.50;;;6.70;;
5054;SDS011;13829;48.990;8.346;2023-06-14T05:37:23;7.47;;;6.47;;
5054;SDS011;13829;48.990;8.346;2023-06-14T05:39:51;9.03;;;6.63;;
5054;SDS011;13829;48.990;8.346;2023-06-14T05:42:18;8.47;;;6.67;;
5054;SDS011;13829;48.990;8.346;2023-06-14T05:44:45;7.30;;;5.87;;
5054;SDS011;13829;48.990;8.346;2023-06-14T05:47:12;12.20;;;6.43;;
5054;SDS011;13829;48.990;8.346;2023-06-14T05:49:39;7.73;;;6.43;;
5054;SDS011;13829;48.990;8.346;2023-06-14T05:52:06;8.07;;;6.87;;
5054;SDS011;13829;48.990;8.346;2023-06-14T05:54:35;11.23;;;6.27;;
5054;SDS011;13829;48.990;8.346;2023-06-14T05:57:03;10.47;;;7.13;;
5054;SDS011;13829;48.990;8.346;2023-06-14T05:59:31;10.30;;;6.63;;
5054;SDS011;13829;48.990;8.346;2023-06-14T06:01:58;9.63;;;6.07;;
5054;SDS011;13829;48.990;8.346;2023-06-14T06:04:25;10.63;;;6.67;;
5054;SDS011;13829;48.990;8.346;2023-06-14T06:06:52;11.83;;;6.73;;
5054;SDS011;13829;48.990;8.346;2023-06-14T06:09:18;8.13;;;6.50;;
5054;SDS011;13829;48.990;8.346;2023-06-14T06:11:45;8.13;;;6.23;;
5054;SDS011;13829;48.990;8.346;2023-06-14T06:14:14;9.95;;;6.93;;
5054;SDS011;13829;48.990;8.346;2023-06-14T06:16:41;7.97;;;6.22;;
5054;SDS011;13829;48.990;8.346;2023-06-14T06:19:07;10.93;;;6.55;;
5054;SDS011;13829;48.990;8.346;2023-06-14T06:21:35;8.63;;;5.60;;
5054;SDS011;13829;48.990;8.346;2023-06-14T06:24:02;9.70;;;6.45;;
5054;SDS011;13829;48.990;8.346;2023-06-14T06:26:31;6.25;;;5.65;;
5054;SDS011;13829;48.990;8.346;2023-06-14T06:28:58;7.68;;;5.43;;
5054;SDS011;13829;48.990;8.346;2023-06-14T06:31:26;9.30;;;5.30;;
5054;SDS011;13829;48.990;8.346;2023-06-14T06:33:53;8.57;;;6.25;;
5054;SDS011;13829;48.990;8.346;2023-06-14T06:36:20;10.35;;;5.70;;
5054;SDS011;13829;48.990;8.346;2023-06-14T06:38:47;7.15;;;5.82;;
5054;SDS011;13829;48.990;8.346;2023-06-14T06:41:14;8.30;;;5.47;;
5054;SDS011;13829;48.990;8.346;2023-06-14T06:43:41;8.38;;;5.70;;
5054;SDS011;13829;48.990;8.346;2023-06-14T06:46:08;10.75;;;5.60;;
5054;SDS011;13829;48.990;8.346;2023-06-14T06:48:36;8.75;;;5.78;;
5054;SDS011;13829;48.990;8.346;2023-06-14T06:51:03;8.20;;;5.25;;
5054;SDS011;13829;48.990;8.346;2023-06-14T06:53:30;6.65;;;6.03;;
5054;SDS011;13829;48.990;8.346;2023-06-14T06:55:57;7.55;;;5.57;;
5054;SDS011;13829;48.990;8.346;2023-06-14T06:58:24;8.93;;;5.47;;
5054;SDS011;13829;48.990;8.346;2023-06-14T07:00:52;8.35;;;5.57;;
5054;SDS011;13829;48.990;8.346;2023-06-14T07:03:19;6.55;;;5.45;;
5054;SDS011;13829;48.990;8.346;2023-06-14T07:05:47;8.65;;;5.53;;
5054;SDS011;13829;48.990;8.346;2023-06-14T07:08:14;12.52;;;5.95;;
5054;SDS011;13829;48.990;8.346;2023-06-14T07:10:41;7.82;;;5.05;;
5054;SDS011;13829;48.990;8.346;2023-06-14T07:13:08;8.43;;;5.20;;
5054;SDS011;13829;48.990;8.346;2023-06-14T07:15:35;9.23;;;5.30;;
5054;SDS011;13829;48.990;8.346;2023-06-14T07:18:01;6.20;;;4.70;;
5054;SDS011;13829;48.990;8.346;2023-06-14T07:20:29;9.50;;;5.60;;
5054;SDS011;13829;48.990;8.346;2023-06-14T07:22:57;8.68;;;4.93;;
5054;SDS011;13829;48.990;8.346;2023-06-14T07:25:24;8.20;;;4.95;;
5054;SDS011;13829;48.990;8.346;2023-06-14T07:27:51;10.05;;;5.25;;
5054;SDS011;13829;48.990;8.346;2023-06-14T07:30:18;7.10;;;5.45;;
5054;SDS011;13829;48.990;8.346;2023-06-14T07:32:45;8.05;;;4.97;;
5054;SDS011;13829;48.990;8.346;2023-06-14T07:35:12;7.05;;;5.22;;
5054;SDS011;13829;48.990;8.346;2023-06-14T07:37:39;8.85;;;5.40;;
5054;SDS011;13829;48.990;8.346;2023-06-14T07:40:08;8.38;;;5.63;;
5054;SDS011;13829;48.990;8.346;2023-06-14T07:42:36;9.10;;;5.22;;
5054;SDS011;13829;48.990;8.346;2023-06-14T07:45:03;6.15;;;5.18;;
5054;SDS011;13829;48.990;8.346;2023-06-14T07:47:32;5.20;;;4.65;;
5054;SDS011;13829;48.990;8.346;2023-06-14T07:49:59;6.20;;;5.40;;
5054;SDS011;13829;48.990;8.346;2023-06-14T07:52:26;7.80;;;5.25;;
5054;SDS011;13829;48.990;8.346;2023-06-14T07:54:53;9.18;;;5.38;;
5054;SDS011;13829;48.990;8.346;2023-06-14T07:57:21;7.20;;;5.50;;
5054;SDS011;13829;48.990;8.346;2023-06-14T07:59:48;7.38;;;5.20;;
5054;SDS011;13829;48.990;8.346;2023-06-14T08:02:15;5.15;;;4.68;;
5054;SDS011;13829;48.990;8.346;2023-06-14T08:04:43;7.65;;;5.20;;
5054;SDS011;13829;48.990;8.346;2023-06-14T08:07:10;6.38;;;4.95;;
5054;SDS011;13829;48.990;8.346;2023-06-14T08:09:37;6.72;;;5.28;;
5054;SDS011;13829;48.990;8.346;2023-06-14T08:12:04;8.15;;;4.75;;
5054;SDS011;13829;48.990;8.346;2023-06-14T08:14:36;7.18;;;4.82;;
5054;SDS011;13829;48.990;8.346;2023-06-14T08:17:03;7.00;;;5.07;;
5054;SDS011;13829;48.990;8.346;2023-06-14T08:19:30;5.82;;;4.97;;
5054;SDS011;13829;48.990;8.346;2023-06-14T08:21:57;9.27;;;4.75;;
5054;SDS011;13829;48.990;8.346;2023-06-14T08:24:24;6.00;;;4.70;;
5054;SDS011;13829;48.990;8.346;2023-06-14T08:26:52;5.68;;;4.60;;
5054;SDS011;13829;48.990;8.346;2023-06-14T08:29:19;5.70;;;4.90;;
5054;SDS011;13829;48.990;8.346;2023-06-14T08:31:48;7.15;;;4.93;;
5054;SDS011;13829;48.990;8.346;2023-06-14T08:34:14;9.20;;;4.82;;
5054;SDS011;13829;48.990;8.346;2023-06-14T08:36:41;5.85;;;4.45;;
5054;SDS011;13829;48.990;8.346;2023-06-14T08:39:08;5.97;;;4.82;;
5054;SDS011;13829;48.990;8.346;2023-06-14T08:41:35;6.82;;;5.28;;
5054;SDS011;13829;48.990;8.346;2023-06-14T08:44:03;8.13;;;5.10;;
5054;SDS011;13829;48.990;8.346;2023-06-14T08:46:32;6.28;;;4.65;;
5054;SDS011;13829;48.990;8.346;2023-06-14T08:49:01;5.10;;;4.57;;
5054;SDS011;13829;48.990;8.346;2023-06-14T08:51:30;5.07;;;4.55;;
5054;SDS011;13829;48.990;8.346;2023-06-14T08:53:59;6.78;;;5.32;;
5054;SDS011;13829;48.990;8.346;2023-06-14T08:56:28;5.90;;;5.18;;
5054;SDS011;13829;48.990;8.346;2023-06-14T08:58:59;8.98;;;5.10;;
5054;SDS011;13829;48.990;8.346;2023-06-14T09:01:28;9.32;;;5.10;;
5054;SDS011;13829;48.990;8.346;2023-06-14T09:03:56;10.60;;;5.53;;
5054;SDS011;13829;48.990;8.346;2023-06-14T09:06:24;7.38;;;5.50;;
5054;SDS011;13829;48.990;8.346;2023-06-14T09:08:53;8.38;;;5.28;;
5054;SDS011;13829;48.990;8.346;2023-06-14T09:11:22;8.02;;;4.57;;
5054;SDS011;13829;48.990;8.346;2023-06-14T09:13:51;5.15;;;4.65;;
5054;SDS011;13829;48.990;8.346;2023-06-14T09:16:18;6.10;;;5.00;;
5054;SDS011;13829;48.990;8.346;2023-06-14T09:18:46;7.60;;;5.00;;
5054;SDS011;13829;48.990;8.346;2023-06-14T09:21:13;7.03;;;5.00;;
5054;SDS011;13829;48.990;8.346;2023-06-14T09:23:44;8.05;;;4.60;;
5054;SDS011;13829;48.990;8.346;2023-06-14T09:26:13;8.90;;;5.07;;
5054;SDS011;13829;48.990;8.346;2023-06-14T09:28:42;9.15;;;5.10;;
5054;SDS011;13829;48.990;8.346;2023-06-14T09:31:10;7.30;;;5.05;;
5054;SDS011;13829;48.990;8.346;2023-06-14T09:33:38;8.27;;;4.57;;
5054;SDS011;13829;48.990;8.346;2023-06-14T09:36:12;5.45;;;4.95;;
5054;SDS011;13829;48.990;8.346;2023-06-14T09:38:45;10.43;;;5.13;;
5054;SDS011;13829;48.990;8.346;2023-06-14T09:41:18;8.30;;;5.20;;
5054;SDS011;13829;48.990;8.346;2023-06-14T09:43:46;7.88;;;4.85;;
5054;SDS011;13829;48.990;8.346;2023-06-14T09:46:14;6.97;;;5.10;;
5054;SDS011;13829;48.990;8.346;2023-06-14T09:48:42;8.32;;;5.15;;
5054;SDS011;13829;48.990;8.346;2023-06-14T09:51:10;8.32;;;5.00;;
5054;SDS011;13829;48.990;8.346;2023-06-14T09:53:40;8.23;;;5.00;;
5054;SDS011;13829;48.990;8.346;2023-06-14T09:56:11;9.25;;;5.22;;
5054;SDS011;13829;48.990;8.346;2023-06-14T09:58:39;6.88;;;4.50;;
5054;SDS011;13829;48.990;8.346;2023-06-14T10:01:07;7.80;;;4.70;;
5054;SDS011;13829;48.990;8.346;2023-06-14T10:03:38;6.78;;;4.78;;
5054;SDS011;13829;48.990;8.346;2023-06-14T10:06:08;7.97;;;4.95;;
5054;SDS011;13829;48.990;8.346;2023-06-14T10:08:35;6.35;;;4.68;;
5054;SDS011;13829;48.990;8.346;2023-06-14T10:11:05;7.25;;;5.20;;
5054;SDS011;13829;48.990;8.346;2023-06-14T10:13:34;7.13;;;5.18;;
5054;SDS011;13829;48.990;8.346;2023-06-14T10:16:05;8.60;;;4.43;;
5054;SDS011;13829;48.990;8.346;2023-06-14T10:18:43;7.70;;;5.05;;
5054;SDS011;13829;48.990;8.346;2023-06-14T10:21:17;13.25;;;4.93;;
5054;SDS011;13829;48.990;8.346;2023-06-14T10:23:54;9.63;;;4.88;;
5054;SDS011;13829;48.990;8.346;2023-06-14T10:26:26;6.68;;;4.80;;
5054;SDS011;13829;48.990;8.346;2023-06-14T10:28:58;6.82;;;4.15;;
5054;SDS011;13829;48.990;8.346;2023-06-14T10:31:40;6.63;;;4.90;;
5054;SDS011;13829;48.990;8.346;2023-06-14T10:34:10;7.40;;;4.90;;
5054;SDS011;13829;48.990;8.346;2023-06-14T10:36:38;7.93;;;4.63;;
5054;SDS011;13829;48.990;8.346;2023-06-14T10:39:10;6.65;;;4.53;;
5054;SDS011;13829;48.990;8.346;2023-06-14T10:41:42;5.60;;;4.68;;
5054;SDS011;13829;48.990;8.346;2023-06-14T10:44:39;5.00;;;4.00;;
5054;SDS011;13829;48.990;8.346;2023-06-14T10:47:21;7.50;;;4.95;;
5054;SDS011;13829;48.990;8.346;2023-06-14T10:49:52;6.20;;;4.22;;
5054;SDS011;13829;48.990;8.346;2023-06-14T10:52:24;13.23;;;4.75;;
5054;SDS011;13829;48.990;8.346;2023-06-14T10:55:04;8.80;;;4.78;;
5054;SDS011;13829;48.990;8.346;2023-06-14T10:57:36;8.40;;;5.03;;
5054;SDS011;13829;48.990;8.346;2023-06-14T11:00:07;7.35;;;4.53;;
5054;SDS011;13829;48.990;8.346;2023-06-14T11:06:15;4.85;;;4.45;;
5054;SDS011;13829;48.990;8.346;2023-06-14T11:08:56;12.75;;;5.32;;
5054;SDS011;13829;48.990;8.346;2023-06-14T11:11:53;10.68;;;4.88;;
5054;SDS011;13829;48.990;8.346;2023-06-14T11:14:22;5.38;;;4.20;;
5054;SDS011;13829;48.990;8.346;2023-06-14T11:16:50;4.85;;;4.03;;
5054;SDS011;13829;48.990;8.346;2023-06-14T11:19:17;7.40;;;4.53;;
5054;SDS011;13829;48.990;8.346;2023-06-14T11:21:46;9.60;;;5.13;;
5054;SDS011;13829;48.990;8.346;2023-06-14T11:24:14;5.80;;;4.35;;
5054;SDS011;13829;48.990;8.346;2023-06-14T11:26:41;8.45;;;5.05;;
5054;SDS011;13829;48.990;8.346;2023-06-14T11:29:07;6.10;;;5.53;;
5054;SDS011;13829;48.990;8.346;2023-06-14T11:31:35;8.75;;;5.68;;
5054;SDS011;13829;48.990;8.346;2023-06-14T11:34:03;7.88;;;5.38;;
5054;SDS011;13829;48.990;8.346;2023-06-14T11:36:31;5.50;;;5.00;;
5054;SDS011;13829;48.990;8.346;2023-06-14T11:39:00;7.07;;;5.32;;
5054;SDS011;13829;48.990;8.346;2023-06-14T11:41:35;5.80;;;5.30;;
5054;SDS011;13829;48.990;8.346;2023-06-14T11:44:05;7.93;;;5.57;;
5054;SDS011;13829;48.990;8.346;2023-06-14T11:46:33;6.53;;;5.18;;
5054;SDS011;13829;48.990;8.346;2023-06-14T11:49:00;7.55;;;5.47;;
5054;SDS011;13829;48.990;8.346;2023-06-14T11:51:30;7.03;;;5.50;;
5054;SDS011;13829;48.990;8.346;2023-06-14T11:53:58;11.80;;;6.30;;
5054;SDS011;13829;48.990;8.346;2023-06-14T11:56:25;10.85;;;5.25;;
5054;SDS011;13829;48.990;8.346;2023-06-14T11:58:53;5.95;;;5.07;;
5054;SDS011;13829;48.990;8.346;2023-06-14T12:01:22;7.40;;;5.45;;
5054;SDS011;13829;48.990;8.346;2023-06-14T12:03:50;11.15;;;6.28;;
5054;SDS011;13829;48.990;8.346;2023-06-14T12:06:25;5.53;;;5.03;;
5054;SDS011;13829;48.990;8.346;2023-06-14T12:09:00;7.32;;;5.75;;
5054;SDS011;13829;48.990;8.346;2023-06-14T12:11:32;7.40;;;4.97;;
5054;SDS011;13829;48.990;8.346;2023-06-14T12:14:02;5.45;;;4.90;;
5054;SDS011;13829;48.990;8.346;2023-06-14T12:16:30;6.20;;;5.28;;
5054;SDS011;13829;48.990;8.346;2023-06-14T12:19:00;7.80;;;5.10;;
5054;SDS011;13829;48.990;8.346;2023-06-14T12:21:36;7.85;;;5.00;;
5054;SDS011;13829;48.990;8.346;2023-06-14T12:24:07;7.00;;;5.50;;
5054;SDS011;13829;48.990;8.346;2023-06-14T12:26:37;6.45;;;5.10;;
5054;SDS011;13829;48.990;8.346;2023-06-14T12:29:06;7.05;;;5.18;;
5054;SDS011;13829;48.990;8.346;2023-06-14T12:31:33;8.00;;;4.70;;
5054;SDS011;13829;48.990;8.346;2023-06-14T12:34:00;5.97;;;4.50;;
5054;SDS011;13829;48.990;8.346;2023-06-14T12:36:27;5.65;;;4.57;;
5054;SDS011;13829;48.990;8.346;2023-06-14T12:38:54;7.75;;;4.45;;
5054;SDS011;13829;48.990;8.346;2023-06-14T12:41:23;6.00;;;4.80;;
5054;SDS011;13829;48.990;8.346;2023-06-14T12:43:51;5.18;;;4.03;;
5054;SDS011;13829;48.990;8.346;2023-06-14T12:46:18;4.97;;;4.30;;
5054;SDS011;13829;48.990;8.346;2023-06-14T12:48:45;5.28;;;4.35;;
5054;SDS011;13829;48.990;8.346;2023-06-14T12:51:12;7.68;;;4.75;;
5054;SDS011;13829;48.990;8.346;2023-06-14T12:53:39;7.28;;;4.72;;
5054;SDS011;13829;48.990;8.346;2023-06-14T12:56:06;9.98;;;4.45;;
5054;SDS011;13829;48.990;8.346;2023-06-14T12:58:34;6.50;;;4.60;;
5054;SDS011;13829;48.990;8.346;2023-06-14T13:01:01;7.80;;;4.32;;
5054;SDS011;13829;48.990;8.346;2023-06-14T13:03:28;7.15;;;5.22;;
5054;SDS011;13829;48.990;8.346;2023-06-14T13:05:55;6.03;;;4.53;;
5054;SDS011;13829;48.990;8.346;2023-06-14T13:08:22;6.78;;;3.92;;
5054;SDS011;13829;48.990;8.346;2023-06-14T13:10:49;5.93;;;4.25;;
5054;SDS011;13829;48.990;8.346;2023-06-14T13:13:16;8.00;;;4.13;;
5054;SDS011;13829;48.990;8.346;2023-06-14T13:15:45;6.85;;;4.22;;
5054;SDS011;13829;48.990;8.346;2023-06-14T13:18:12;5.90;;;4.05;;
5054;SDS011;13829;48.990;8.346;2023-06-14T13:20:39;7.85;;;5.03;;
5054;SDS011;13829;48.990;8.346;2023-06-14T13:23:06;6.53;;;4.72;;
5054;SDS011;13829;48.990;8.346;2023-06-14T13:25:35;5.10;;;4.47;;
5054;SDS011;13829;48.990;8.346;2023-06-14T13:28:03;5.40;;;4.28;;
5054;SDS011;13829;48.990;8.346;2023-06-14T13:30:31;6.32;;;4.60;;
5054;SDS011;13829;48.990;8.346;2023-06-14T13:33:00;6.93;;;4.50;;
5054;SDS011;13829;48.990;8.346;2023-06-14T13:35:28;5.35;;;4.40;;
5054;SDS011;13829;48.990;8.346;2023-06-14T13:37:55;5.95;;;4.15;;
5054;SDS011;13829;48.990;8.346;2023-06-14T13:40:22;5.30;;;4.78;;
5054;SDS011;13829;48.990;8.346;2023-06-14T13:42:49;6.25;;;4.60;;
5054;SDS011;13829;48.990;8.346;2023-06-14T13:45:16;8.70;;;4.63;;
5054;SDS011;13829;48.990;8.346;2023-06-14T13:47:43;6.97;;;4.22;;
5054;SDS011;13829;48.990;8.346;2023-06-14T13:50:14;10.10;;;4.63;;
5054;SDS011;13829;48.990;8.346;2023-06-14T13:52:42;4.85;;;4.05;;
5054;SDS011;13829;48.990;8.346;2023-06-14T13:55:09;4.65;;;4.25;;
5054;SDS011;13829;48.990;8.346;2023-06-14T13:57:36;6.60;;;4.60;;
5054;SDS011;13829;48.990;8.346;2023-06-14T14:00:03;7.38;;;4.40;;
5054;SDS011;13829;48.990;8.346;2023-06-14T14:02:31;5.60;;;4.70;;
5054;SDS011;13829;48.990;8.346;2023-06-14T14:04:58;8.75;;;4.43;;
5054;SDS011;13829;48.990;8.346;2023-06-14T14:07:26;6.47;;;4.35;;
5054;SDS011;13829;48.990;8.346;2023-06-14T14:09:54;6.05;;;4.45;;
5054;SDS011;13829;48.990;8.346;2023-06-14T14:12:22;5.65;;;4.38;;
5054;SDS011;13829;48.990;8.346;2023-06-14T14:14:50;7.65;;;4.38;;
5054;SDS011;13829;48.990;8.346;2023-06-14T14:17:17;6.90;;;4.88;;
5054;SDS011;13829;48.990;8.346;2023-06-14T14:19:44;5.30;;;4.70;;
5054;SDS011;13829;48.990;8.346;2023-06-14T14:22:11;5.00;;;4.38;;
5054;SDS011;13829;48.990;8.346;2023-06-14T14:24:39;6.32;;;4.50;;
5054;SDS011;13829;48.990;8.346;2023-06-14T14:27:06;5.05;;;4.18;;
5054;SDS011;13829;48.990;8.346;2023-06-14T14:29:33;5.45;;;4.28;;
5054;SDS011;13829;48.990;8.346;2023-06-14T14:32:00;4.82;;;4.03;;
5054;SDS011;13829;48.990;8.346;2023-06-14T14:34:27;5.35;;;4.32;;
5054;SDS011;13829;48.990;8.346;2023-06-14T14:36:54;5.90;;;4.40;;
5054;SDS011;13829;48.990;8.346;2023-06-14T14:39:21;4.68;;;4.15;;
5054;SDS011;13829;48.990;8.346;2023-06-14T14:41:49;6.90;;;4.22;;
5054;SDS011;13829;48.990;8.346;2023-06-14T14:44:16;9.50;;;4.63;;
5054;SDS011;13829;48.990;8.346;2023-06-14T14:46:44;6.97;;;4.35;;
5054;SDS011;13829;48.990;8.346;2023-06-14T14:49:11;8.27;;;4.38;;
5054;SDS011;13829;48.990;8.346;2023-06-14T14:51:38;4.80;;;3.90;;
5054;SDS011;13829;48.990;8.346;2023-06-14T14:54:05;8.85;;;4.78;;
5054;SDS011;13829;48.990;8.346;2023-06-14T14:56:32;8.43;;;4.40;;
5054;SDS011;13829;48.990;8.346;2023-06-14T14:59:01;4.68;;;4.15;;
5054;SDS011;13829;48.990;8.346;2023-06-14T15:01:28;7.88;;;4.57;;
5054;SDS011;13829;48.990;8.346;2023-06-14T15:03:55;4.43;;;3.88;;
5054;SDS011;13829;48.990;8.346;2023-06-14T15:06:22;5.72;;;3.78;;
5054;SDS011;13829;48.990;8.346;2023-06-14T15:08:49;4.82;;;4.38;;
5054;SDS011;13829;48.990;8.346;2023-06-14T15:11:16;9.00;;;3.65;;